Flight Track Log - Related Links

Times and Time Zones

All times are in EDT time to prevent confusion due to time zone crossing. See the UCA4838 flight status page for this flight to view local times or setup timezone preferences in your user account.

Time Position Orientation Groundspeed Altitude Reporting Facility
EDT Latitude Longitude Course Direction KTS MPH feet Rate Location/Type
Thu 06:34:56 AM 43.1014 -77.6942 186° South 133 153 1,200  Level Cleveland Center
Thu 06:35:45 AM 43.0744 -77.6983 186° South 148 170 2,000 1,266 Climbing Cleveland Center
Thu 06:36:45 AM 43.0522 -77.6369 116° Southeast 170 196 3,500 1,266 Climbing Cleveland Center
Thu 06:37:34 AM 43.0383 -77.5919 113° Southeast 179 206 4,300 1,101 Climbing Cleveland Center
Thu 06:38:34 AM 43.0161 -77.5333 117° Southeast 179 206 5,500 1,150 Climbing Cleveland Center
Thu 06:39:34 AM 42.9914 -77.4636 116° Southeast 179 206 6,600 1,250 Climbing Cleveland Center
Thu 06:40:34 AM 42.9664 -77.3939 116° Southeast 198 228 8,000 1,150 Climbing Cleveland Center
Thu 06:41:34 AM 42.9414 -77.3214 115° Southeast 198 228 8,900 1,021 Climbing Cleveland Center
Thu 06:43:48 AM 42.8825 -77.1522 115° Southeast 221 254 11,300 1,015 Climbing New York Center
Thu 06:44:49 AM 42.8533 -77.0731 117° Southeast 221 254 12,200 829 Climbing New York Center
Thu 06:45:51 AM 42.8239 -76.9967 118° Southeast 226 260 13,000 400 Climbing New York Center
Thu 06:46:49 AM 42.7869 -76.9086 120° Southeast 237 273 13,000  Level New York Center
Thu 06:47:51 AM 42.7458 -76.8169 121° Southeast 265 305 13,000  Level New York Center
Thu 06:48:51 AM 42.7047 -76.7231 121° Southeast 281 323 13,000  Level New York Center
Thu 06:49:51 AM 42.6617 -76.6289 122° Southeast 292 336 13,000  Level New York Center
Thu 06:50:51 AM 42.6183 -76.5319 121° Southeast 292 336 13,000  Level New York Center
Thu 06:51:54 AM 42.5681 -76.4242 122° Southeast 293 337 13,000  Level Boston Center
Thu 06:52:54 AM 42.5256 -76.3283 121° Southeast 293 337 13,000  Level Boston Center
Thu 06:53:54 AM 42.4925 -76.2558 122° Southeast 293 337 13,000  Level Boston Center
Thu 06:54:54 AM 42.4481 -76.1517 120° Southeast 293 337 13,000  Level Boston Center
Thu 06:55:54 AM 42.3992 -76.0506 123° Southeast 302 348 13,000  Level Boston Center
Thu 06:56:54 AM 42.3603 -75.9611 120° Southeast 296 341 13,000  Level Boston Center
Thu 06:57:54 AM 42.3175 -75.8658 121° Southeast 301 346 13,000  Level Boston Center
Thu 06:58:54 AM 42.2683 -75.7594 122° Southeast 296 341 13,000  Level Boston Center
Thu 06:59:54 AM 42.2272 -75.6675 121° Southeast 296 341 13,000  Level Boston Center
Thu 07:00:54 AM 42.1842 -75.5728 122° Southeast 296 341 13,000  Level Boston Center
Thu 07:01:54 AM 42.1389 -75.4781 123° Southeast 296 341 13,000  Level Boston Center
Thu 07:02:54 AM 42.0975 -75.3867 121° Southeast 296 341 13,000  Level Boston Center
Thu 07:03:54 AM 42.0539 -75.2922 122° Southeast 296 341 13,000  Level Boston Center
Thu 07:04:54 AM 42.0167 -75.1956 117° Southeast 291 335 13,000  Level Boston Center
Thu 07:05:54 AM 41.9794 -75.0961 117° Southeast 291 335 13,000  Level Boston Center
Thu 07:06:54 AM 41.9461 -75.0081 117° Southeast 291 335 13,000 -100 Level Boston Center
Thu 07:07:54 AM 41.9025 -74.9003 119° Southeast 291 335 12,800 -800 Descending Boston Center
Thu 07:08:54 AM 41.8328 -74.8586 156° South 286 329 11,400 -1,500 Descending Boston Center
Thu 07:09:54 AM 41.7483 -74.8053 155° Southeast 299 344 9,800 -1,450 Descending Boston Center
Thu 07:10:54 AM 41.6825 -74.7639 155° Southeast 298 343 8,500 -1,350 Descending Boston Center
Thu 07:11:54 AM 41.6044 -74.7139 154° Southeast 287 330 7,100 -850 Descending Boston Center
Thu 07:12:54 AM 41.5344 -74.6697 155° Southeast 282 325 6,800 -550 Descending Boston Center
Thu 07:13:54 AM 41.4644 -74.6258 155° Southeast 282 325 6,000 -403 Descending Boston Center
Thu 07:14:53 AM 41.4000 -74.6000 163° South 262 302 6,000  Level New York TRACON
Thu 07:15:47 AM 41.3333 -74.6167 191° South 255 293 6,000  Level New York TRACON
Thu 07:16:41 AM 41.2667 -74.6500 201° Southwest 255 293 6,000 -250 Level New York TRACON
Thu 07:17:47 AM 41.2000 -74.6167 159° South 269 310 5,500 -500 Descending New York TRACON
Thu 07:18:41 AM 41.1667 -74.5500 124° Southeast 274 315 5,000 -263 Descending New York TRACON
Thu 07:19:41 AM 41.1167 -74.4667 129° Southeast 265 305 5,000  Level New York TRACON
Thu 07:20:35 AM 41.0667 -74.4000 135° Southeast 259 298 5,000  Level New York TRACON
Thu 07:21:35 AM 41.0167 -74.3333 135° Southeast 259 298 5,000 -50 Level New York TRACON
Thu 07:22:35 AM 40.9833 -74.2500 118° Southeast 260 299 4,900 -350 Descending New York TRACON
Thu 07:23:35 AM 40.9333 -74.1833 135° Southeast 268 308 4,300 -550 Descending New York TRACON
Thu 07:24:35 AM 40.8833 -74.1167 135° Southeast 265 305 3,800 -750 Descending New York TRACON
Thu 07:25:35 AM 40.8167 -74.1000 169° South 224 258 2,800 -1,105 Descending New York TRACON
Thu 07:26:29 AM 40.7667 -74.1167 194° South 193 222 1,700 -1,053 Descending New York TRACON
Thu 07:27:29 AM 40.7333 -74.1333 201° Southwest 154 177 800 -900 Descending New York TRACON
Thu 07:29:00 AM 40.6833 -74.1667 159° South  Level FlightAware Approximate
Thu 07:36:00 AM 40.6925 -74.1687 159° South  Level Estimated

Login

Don't have an account? Register now (free) for customized features, flight alerts, and more!